createdAt,value
2023-08-04T00:04:24.840Z,17.00
2023-08-04T00:09:26.610Z,17.10
2023-08-04T00:14:28.449Z,17.20
2023-08-04T00:19:30.212Z,17.00
2023-08-04T00:24:31.997Z,17.10
2023-08-04T00:29:33.853Z,17.10
2023-08-04T00:34:35.639Z,17.10
2023-08-04T00:39:37.354Z,17.30
2023-08-04T00:44:39.125Z,17.30
2023-08-04T00:49:41.596Z,17.10
2023-08-04T00:54:46.752Z,17.30
2023-08-04T00:59:49.167Z,17.20
2023-08-04T01:04:51.123Z,17.30
2023-08-04T01:10:11.724Z,17.40
2023-08-04T01:15:15.042Z,17.50
2023-08-04T01:20:16.856Z,17.40
2023-08-04T01:25:19.778Z,17.10
2023-08-04T01:30:23.737Z,17.30
2023-08-04T01:35:26.620Z,17.50
2023-08-04T01:40:28.354Z,17.70
2023-08-04T01:45:30.105Z,17.50
2023-08-04T01:50:31.867Z,17.90
2023-08-04T01:55:33.632Z,18.00
2023-08-04T02:00:35.344Z,18.10
2023-08-04T02:05:37.098Z,18.20
2023-08-04T02:10:38.957Z,18.30
2023-08-04T02:15:40.729Z,18.30
2023-08-04T02:20:42.536Z,18.40
2023-08-04T02:25:44.253Z,18.40
2023-08-04T02:30:46.331Z,18.30
2023-08-04T02:35:48.980Z,18.40
2023-08-04T02:40:50.706Z,18.50
2023-08-04T02:45:53.157Z,18.40
2023-08-04T02:51:09.146Z,18.20
2023-08-04T02:56:12.339Z,18.10
2023-08-04T03:01:14.591Z,18.30
2023-08-04T03:06:16.410Z,18.20
2023-08-04T03:11:18.143Z,18.10
2023-08-04T03:16:19.940Z,18.00
2023-08-04T03:21:21.779Z,18.20
2023-08-04T03:26:23.564Z,18.30
2023-08-04T03:31:25.361Z,18.20
2023-08-04T03:36:27.132Z,18.20
2023-08-04T03:41:28.876Z,18.10
2023-08-04T03:46:30.636Z,17.80
2023-08-04T03:51:32.365Z,17.60
2023-08-04T03:56:34.064Z,17.60
2023-08-04T04:01:35.825Z,17.50
2023-08-04T04:06:37.719Z,17.80
2023-08-04T04:11:39.486Z,17.90
2023-08-04T04:16:41.227Z,18.10
2023-08-04T04:21:42.954Z,18.10
2023-08-04T04:26:44.671Z,18.10
2023-08-04T04:31:46.631Z,18.20
2023-08-04T04:36:48.530Z,18.20
2023-08-04T04:41:50.328Z,18.20
2023-08-04T04:46:52.214Z,18.30
2023-08-04T04:51:53.941Z,18.30
2023-08-04T04:56:55.722Z,18.40
2023-08-04T05:01:57.488Z,18.40
2023-08-04T05:06:59.363Z,18.50
2023-08-04T05:12:01.121Z,18.60
2023-08-04T05:17:03.190Z,18.50
2023-08-04T05:22:05.259Z,18.60
2023-08-04T05:27:07.256Z,18.40
2023-08-04T05:32:09.000Z,18.40
2023-08-04T05:37:10.724Z,18.50
2023-08-04T05:42:12.872Z,18.40
2023-08-04T05:47:14.667Z,18.50
2023-08-04T05:52:16.338Z,18.40
2023-08-04T05:57:18.081Z,18.30
2023-08-04T06:02:19.834Z,18.70
2023-08-04T06:07:21.597Z,18.70
2023-08-04T06:12:23.424Z,18.50
2023-08-04T06:17:25.165Z,18.40
2023-08-04T06:22:26.896Z,18.60
2023-08-04T06:27:28.697Z,18.60
2023-08-04T06:32:30.525Z,18.50
2023-08-04T06:37:32.321Z,19.00
2023-08-04T06:42:34.168Z,19.20
2023-08-04T06:47:36.056Z,19.50
2023-08-04T06:52:37.975Z,19.70
2023-08-04T06:57:39.765Z,19.40
2023-08-04T07:02:43.282Z,19.50
2023-08-04T07:07:48.115Z,19.20
2023-08-04T07:12:49.925Z,19.20
2023-08-04T07:17:51.751Z,19.10
2023-08-04T07:22:53.486Z,19.10
2023-08-04T07:27:55.238Z,18.60
2023-08-04T07:32:57.053Z,18.90
2023-08-04T07:37:58.824Z,19.20
2023-08-04T07:43:00.582Z,18.70
2023-08-04T07:48:02.308Z,18.70
2023-08-04T07:53:04.481Z,18.60
2023-08-04T07:58:06.922Z,18.70
2023-08-04T08:03:08.760Z,18.70
2023-08-04T08:08:10.680Z,18.60
2023-08-04T08:13:13.585Z,18.50
2023-08-04T08:18:15.615Z,18.70
2023-08-04T08:23:17.377Z,18.40
2023-08-04T08:28:19.154Z,18.60
2023-08-04T08:33:20.911Z,18.50
2023-08-04T08:38:23.040Z,18.30
2023-08-04T08:43:24.877Z,18.40
2023-08-04T08:48:27.807Z,18.50
2023-08-04T08:53:31.828Z,18.60
2023-08-04T08:58:34.426Z,18.70
2023-08-04T09:03:37.654Z,18.70
2023-08-04T09:08:39.499Z,18.80
2023-08-04T09:13:46.697Z,18.60
2023-08-04T09:18:49.951Z,18.70
2023-08-04T09:23:53.321Z,19.50
2023-08-04T09:29:06.751Z,19.50
2023-08-04T09:34:10.362Z,19.60
2023-08-04T09:39:13.198Z,20.00
2023-08-04T09:44:16.137Z,21.20
2023-08-04T09:49:19.272Z,22.20
2023-08-04T09:54:23.045Z,21.90
2023-08-04T09:59:25.871Z,21.40
2023-08-04T10:04:28.353Z,20.80
2023-08-04T10:09:32.629Z,21.40
2023-08-04T10:14:35.156Z,21.40
2023-08-04T10:19:37.237Z,21.50
2023-08-04T10:24:42.703Z,21.40
2023-08-04T10:29:44.544Z,21.70
2023-08-04T10:34:52.155Z,22.30
2023-08-04T10:39:56.971Z,22.20
2023-08-04T10:45:09.660Z,22.80
2023-08-04T10:50:11.940Z,23.30
2023-08-04T10:55:15.243Z,24.20
2023-08-04T11:00:17.098Z,24.40
2023-08-04T11:05:23.690Z,24.00
2023-08-04T11:10:26.642Z,23.60
2023-08-04T11:15:28.884Z,23.50
2023-08-04T11:20:33.324Z,23.70
2023-08-04T11:25:35.758Z,23.90
2023-08-04T11:30:38.086Z,23.90
2023-08-04T11:35:39.792Z,24.00
2023-08-04T11:40:58.495Z,24.30
2023-08-04T11:46:03.205Z,24.30
2023-08-04T11:51:08.164Z,23.50
2023-08-04T11:56:24.633Z,23.20
2023-08-04T12:01:34.937Z,23.00
2023-08-04T12:06:38.818Z,23.00
2023-08-04T12:11:50.840Z,22.80
2023-08-04T12:16:54.084Z,22.80
2023-08-04T12:21:59.852Z,22.60
2023-08-04T12:27:01.640Z,22.40
2023-08-04T12:32:03.739Z,22.30
2023-08-04T12:37:07.175Z,22.00
2023-08-04T12:42:08.927Z,21.90
2023-08-04T12:47:11.750Z,21.60
2023-08-04T12:52:13.657Z,21.70
2023-08-04T12:57:15.748Z,21.60
2023-08-04T13:02:17.576Z,21.40
2023-08-04T13:07:19.688Z,21.00
2023-08-04T13:12:22.556Z,21.00
2023-08-04T13:17:25.824Z,20.70
2023-08-04T13:22:28.091Z,20.80
2023-08-04T13:27:29.990Z,21.00
2023-08-04T13:32:31.922Z,20.80
2023-08-04T13:37:33.697Z,20.90
2023-08-04T13:42:35.559Z,21.00
2023-08-04T13:47:39.353Z,21.10
2023-08-04T13:52:41.289Z,21.10
2023-08-04T13:57:43.039Z,21.40
2023-08-04T14:02:44.920Z,21.70
2023-08-04T14:07:46.903Z,22.00
2023-08-04T14:12:48.677Z,22.40
2023-08-04T14:17:50.426Z,22.60
2023-08-04T14:22:52.310Z,23.00
2023-08-04T14:27:54.036Z,23.30
2023-08-04T14:32:55.918Z,23.30
2023-08-04T14:37:57.835Z,23.30
2023-08-04T14:42:59.742Z,23.30
2023-08-04T14:48:01.624Z,23.20
2023-08-04T14:53:03.496Z,23.30
2023-08-04T14:58:06.285Z,23.40
2023-08-04T15:03:08.042Z,23.10
2023-08-04T15:08:09.811Z,23.00
2023-08-04T15:13:11.730Z,22.80
2023-08-04T15:18:13.497Z,22.80
2023-08-04T15:23:15.332Z,22.50
2023-08-04T15:28:17.165Z,22.10
2023-08-04T15:33:20.446Z,21.90
2023-08-04T15:38:22.540Z,22.10
2023-08-04T15:43:24.312Z,21.60
2023-08-04T15:48:26.688Z,21.40
2023-08-04T15:53:28.967Z,21.20
2023-08-04T15:58:30.772Z,20.90
2023-08-04T16:03:32.621Z,20.60
2023-08-04T16:08:34.470Z,20.50
2023-08-04T16:13:36.740Z,20.30
2023-08-04T16:18:41.148Z,20.10
2023-08-04T16:23:42.860Z,19.90
2023-08-04T16:28:44.656Z,20.10
2023-08-04T16:33:46.430Z,20.00
2023-08-04T16:38:48.448Z,20.10
2023-08-04T16:43:50.186Z,20.00
2023-08-04T16:48:51.982Z,20.70
2023-08-04T16:53:53.740Z,20.30
2023-08-04T16:58:55.491Z,20.10
2023-08-04T17:03:57.261Z,20.30
2023-08-04T17:08:59.031Z,20.20
2023-08-04T17:14:00.739Z,20.20
2023-08-04T17:19:02.447Z,20.10
2023-08-04T17:24:04.271Z,20.00
2023-08-04T17:29:06.082Z,19.90
2023-08-04T17:34:07.917Z,19.80
2023-08-04T17:39:10.029Z,19.70
2023-08-04T17:44:12.057Z,19.60
2023-08-04T17:49:13.927Z,19.70
2023-08-04T17:54:15.624Z,19.40
2023-08-04T17:59:17.359Z,19.10
2023-08-04T18:04:19.175Z,19.00
2023-08-04T18:09:20.951Z,19.10
2023-08-04T18:14:22.881Z,18.90
2023-08-04T18:19:24.647Z,19.00
2023-08-04T18:24:26.583Z,18.70
2023-08-04T18:29:28.322Z,18.60
2023-08-04T18:34:30.090Z,18.50
2023-08-04T18:39:31.810Z,18.40
2023-08-04T18:44:33.615Z,18.70
2023-08-04T18:49:35.338Z,18.80
2023-08-04T18:54:37.108Z,18.60
2023-08-04T18:59:38.861Z,18.50
2023-08-04T19:04:42.798Z,18.60
2023-08-04T19:09:45.117Z,18.70
2023-08-04T19:14:47.022Z,18.80
2023-08-04T19:19:48.757Z,18.80
2023-08-04T19:24:51.507Z,18.50
2023-08-04T19:29:53.268Z,18.20
2023-08-04T19:34:55.039Z,18.10
2023-08-04T19:39:56.809Z,18.20
2023-08-04T19:44:58.550Z,18.20
2023-08-04T19:50:00.382Z,18.10
2023-08-04T19:55:02.150Z,18.00
2023-08-04T20:00:05.839Z,17.70
2023-08-04T20:05:07.986Z,17.60
2023-08-04T20:10:10.283Z,17.60
2023-08-04T20:15:12.151Z,17.60
2023-08-04T20:20:13.980Z,17.70
2023-08-04T20:25:15.915Z,17.70
2023-08-04T20:30:17.700Z,17.70
2023-08-04T20:35:19.413Z,17.70
2023-08-04T20:40:21.293Z,17.50
2023-08-04T20:45:23.028Z,17.70
2023-08-04T20:50:24.803Z,17.10
2023-08-04T20:55:26.496Z,17.00
2023-08-04T21:00:28.215Z,17.50
2023-08-04T21:05:30.694Z,17.60
2023-08-04T21:10:32.795Z,17.80
2023-08-04T21:15:36.557Z,17.70
2023-08-04T21:20:39.082Z,17.60
2023-08-04T21:25:40.857Z,17.40
2023-08-04T21:30:44.475Z,17.50
2023-08-04T21:35:46.579Z,17.50
2023-08-04T21:40:48.400Z,17.30
2023-08-04T21:45:50.159Z,17.20
2023-08-04T21:50:51.914Z,17.40
2023-08-04T21:55:54.859Z,17.60
2023-08-04T22:01:05.018Z,17.50
2023-08-04T22:06:06.917Z,17.50
2023-08-04T22:11:12.207Z,17.40
2023-08-04T22:16:14.082Z,17.40
2023-08-04T22:21:15.861Z,17.40
2023-08-04T22:26:18.029Z,17.30
2023-08-04T22:31:21.563Z,17.40
2023-08-04T22:36:23.603Z,17.50
2023-08-04T22:41:25.333Z,17.40
2023-08-04T22:46:27.107Z,17.50
2023-08-04T22:51:32.231Z,17.50
2023-08-04T22:56:34.005Z,17.20
2023-08-04T23:01:35.806Z,17.10
2023-08-04T23:06:37.563Z,17.30
2023-08-04T23:11:39.271Z,17.10
2023-08-04T23:16:41.021Z,17.20
2023-08-04T23:21:42.832Z,17.30
2023-08-04T23:26:44.631Z,17.20
2023-08-04T23:31:46.356Z,17.50
2023-08-04T23:36:49.451Z,17.30
2023-08-04T23:41:51.349Z,17.50
2023-08-04T23:46:53.221Z,17.50
2023-08-04T23:51:55.021Z,17.50
2023-08-04T23:56:56.768Z,17.20
